Portada
METAR-TAF:

METAR-TAF

Aeroports :

Anchorage, Alaska, Estats Units d'Amèrica

latitud: 61-10-28N, longitud: 149-59-46W, altitud: 44 m

Observació

L'informe es va fer fa 35 minuts, a les 09:53 UTC
Vent calma
Temperatura -2°C
Humitat 63%
Pressió 1027 hPa
Visibilitat: 16.1 km
Escasses núvols a una alçada de 25000 ft

METAR: PANC 150953Z 00000KT 10SM FEW250 M02/M08 A3033 RMK AO2 SLP272 T10221078 $

Hora: 02:28 (10:28 UTC)

Pronòstic

L'informe es va fer fa 5 hores i 8 minuts, a les 05:20 UTC
Pronòstic vàlid del 15 a les 06 UTC al 16 a les 12 UTC
Vent 7 kt del Oest
Visibilitat: 10 km
Núvols disperses a una alçada de 20000 ft
A partir de les 16 a les 0200 UTC
Vent 12 kt del Sud/Sud-Est amb ràfegues de 20 kt
Visibilitat: 10 km
Núvols disperses a una alçada de 20000 ft

TAF: PANC 150520Z 1506/1612 28007KT P6SM SCT200 FM160200 16012G20KT P6SM SCT200

Observacions i pronòstics meteorològics de més de 4000 aeroports (METAR i TAF).

Les estacions disponibles són els punts grocs i vermells al mapa.

Posi el ratolí al punt desitjat per veure el nom de l'estació.

Feu clic per veure les observacions i els pronòstics meteorològics.

Per canviar el mapa: feu clic els botons verds amb una creu de color negre per apropar; al botó verd amb un guió per allunyar la imatge; o en les fletxes verdes per a mapes adjacents.


METAR-TAF: